Time;durP1;ratioP1;P1;durP2;ratioP2;P2;SDS_P1;SDS_P2;PMS_P1;PMS_P2;Temp;Humidity;BMP_temperature;BMP_pressure;BME280_temperature;BME280_humidity;BME280_pressure;Samples;Min_cycle;Max_cycle;Signal;HPM_P1;HPM_P2
2021/07/29 00:03:34;;;;;;;6.70;6.05;;;;;;;19.64;84.34;99905.34;2642656;88;21104;-61
2021/07/29 00:08:13;;;;;;;7.85;5.80;;;;;;;19.60;84.45;99904.92;2642773;88;21032;-60
2021/07/29 00:12:15;;;;;;;6.33;4.95;;;;;;;19.60;84.13;99904.92;2697788;88;21107;-61
2021/07/29 00:16:59;;;;;;;7.12;6.00;;;;;;;19.59;83.34;99899.70;2698206;88;21020;-63
2021/07/29 00:20:58;;;;;;;5.17;4.62;;;;;;;19.56;83.06;99896.90;2697464;88;21020;-61
2021/07/29 00:25:06;;;;;;;9.80;4.47;;;;;;;19.51;82.93;99894.78;2698266;88;21072;-62
2021/07/29 00:29:41;;;;;;;6.30;4.47;;;;;;;19.45;82.87;99891.48;2697567;88;21052;-60
2021/07/29 00:33:45;;;;;;;10.48;5.60;;;;;;;19.45;83.02;99885.28;2697547;88;21012;-62
2021/07/29 00:38:23;;;;;;;6.05;4.28;;;;;;;19.43;82.86;99884.11;2697824;88;21008;-61
2021/07/29 00:42:27;;;;;;;9.58;5.80;;;;;;;19.41;82.73;99885.67;2697745;88;21020;-61
2021/07/29 00:47:02;;;;;;;6.05;4.83;;;;;;;19.36;82.75;99883.23;2749524;86;20953;-61
2021/07/29 00:51:09;;;;;;;5.53;3.57;;;;;;;19.34;82.81;99884.75;2754676;86;21004;-60
2021/07/29 00:55:12;;;;;;;6.60;5.58;;;;;;;19.36;82.67;99889.47;2704741;87;20996;-60
2021/07/29 00:59:53;;;;;;;6.62;5.28;;;;;;;19.26;82.40;99889.80;2652641;89;21086;-60
2021/07/29 01:03:55;;;;;;;11.93;5.62;;;;;;;19.09;82.13;99887.02;2577815;92;21079;-62
2021/07/29 01:07:59;;;;;;;7.30;5.05;;;;;;;18.95;83.11;99880.61;2602469;90;21702;-61
2021/07/29 01:12:05;;;;;;;10.28;5.67;;;;;;;18.95;83.16;99884.64;2601530;91;21124;-61
2021/07/29 01:16:07;;;;;;;6.85;4.95;;;;;;;18.95;83.10;99889.54;2596781;91;21048;-61
2021/07/29 01:20:12;;;;;;;8.23;5.60;;;;;;;18.91;82.75;99881.52;2596560;91;21036;-61
2021/07/29 01:24:13;;;;;;;9.60;6.40;;;;;;;18.85;82.99;99876.88;2596749;90;21056;-62
2021/07/29 01:28:16;;;;;;;9.83;6.33;;;;;;;18.79;82.63;99883.88;2596908;91;21060;-61
2021/07/29 01:32:21;;;;;;;13.00;7.30;;;;;;;18.69;83.15;99882.84;2597109;90;21072;-62
2021/07/29 01:36:29;;;;;;;16.57;5.70;;;;;;;18.29;84.67;99866.67;2678393;89;21027;-61
2021/07/29 01:40:34;;;;;;;9.13;6.00;;;;;;;18.29;84.67;99866.67;2678012;89;21078;-62
2021/07/29 01:44:38;;;;;;;9.97;5.47;;;;;;;18.15;85.80;99876.44;2671066;89;21032;-62
2021/07/29 01:48:41;;;;;;;7.58;5.08;;;;;;;17.90;86.58;99873.98;2659206;88;21299;-62
2021/07/29 01:52:45;;;;;;;9.70;6.93;;;;;;;17.68;87.19;99870.65;2659007;89;21087;-62
2021/07/29 01:56:47;;;;;;;13.08;5.53;;;;;;;17.54;87.85;99875.48;2659204;89;21076;-61
2021/07/29 02:00:52;;;;;;;6.92;5.65;;;;;;;17.53;88.17;99869.28;2665567;89;21020;-62
2021/07/29 02:04:53;;;;;;;8.65;5.55;;;;;;;17.63;88.34;99873.55;2665728;88;21147;-61
2021/07/29 02:08:58;;;;;;;7.90;5.58;;;;;;;17.77;87.78;99874.09;2658694;88;21088;-60
2021/07/29 02:13:03;;;;;;;9.33;5.15;;;;;;;17.92;87.07;99871.42;2635866;89;21541;-62
2021/07/29 02:17:09;;;;;;;6.65;4.72;;;;;;;17.94;86.17;99870.72;2666258;88;21087;-62
2021/07/29 02:21:16;;;;;;;9.50;6.62;;;;;;;17.87;86.42;99871.63;2658812;89;21040;-61
2021/07/29 02:25:20;;;;;;;7.90;5.47;;;;;;;17.78;86.52;99865.50;2658681;89;20997;-61
2021/07/29 02:29:23;;;;;;;9.55;6.53;;;;;;;17.71;86.92;99874.84;2665592;88;21040;-61
2021/07/29 02:33:26;;;;;;;9.30;6.37;;;;;;;17.74;87.18;99873.13;2665337;89;21108;-61
2021/07/29 02:37:27;;;;;;;6.28;4.87;;;;;;;17.82;87.22;99884.31;2665824;89;21058;-62
2021/07/29 02:41:31;;;;;;;7.62;5.33;;;;;;;17.94;87.07;99885.52;2665959;89;21048;-61
2021/07/29 02:45:36;;;;;;;44.25;6.95;;;;;;;18.03;87.20;99885.48;2708896;86;21053;-61
2021/07/29 02:49:40;;;;;;;7.73;4.43;;;;;;;18.17;86.97;99890.54;2747326;86;21061;-61
2021/07/29 02:53:45;;;;;;;7.10;4.28;;;;;;;18.26;86.97;99889.41;2747149;86;21026;-61
2021/07/29 02:57:50;;;;;;;8.25;4.28;;;;;;;18.43;86.93;99882.48;2747210;86;21005;-62
2021/07/29 03:01:52;;;;;;;3.83;3.45;;;;;;;18.54;86.47;99881.49;2750126;86;21025;-61
2021/07/29 03:05:59;;;;;;;5.12;3.52;;;;;;;18.61;85.96;99878.06;2753365;86;21115;-61
2021/07/29 03:10:04;;;;;;;6.62;4.67;;;;;;;18.70;86.12;99879.11;2707891;87;21600;-61
2021/07/29 03:14:15;;;;;;;5.12;3.42;;;;;;;18.80;85.66;99875.27;2707800;88;22278;-61
2021/07/29 03:18:20;;;;;;;4.40;3.80;;;;;;;18.82;84.84;99886.19;2707906;88;21095;-61
2021/07/29 03:22:23;;;;;;;5.50;4.37;;;;;;;18.80;84.58;99886.05;2707560;86;21103;-61
2021/07/29 03:26:27;;;;;;;5.90;3.55;;;;;;;18.76;84.58;99886.11;2707689;88;21108;-61
2021/07/29 03:30:31;;;;;;;6.08;4.00;;;;;;;18.76;84.81;99885.58;2708078;88;21580;-61
2021/07/29 03:34:33;;;;;;;4.20;3.75;;;;;;;18.79;84.56;99888.42;2707735;88;21098;-61
2021/07/29 03:38:37;;;;;;;6.45;4.58;;;;;;;18.80;84.41;99888.24;2708022;86;21095;-61
2021/07/29 03:42:40;;;;;;;6.30;5.12;;;;;;;18.80;84.53;99884.70;2707942;88;21071;-61
2021/07/29 03:46:46;;;;;;;5.20;3.50;;;;;;;18.86;84.41;99892.02;2707883;88;21020;-61
2021/07/29 03:50:48;;;;;;;;;;;;;;;18.94;84.12;99897.80;2710395;86;21107;-61
2021/07/29 03:54:57;;;;;;;5.55;4.15;;;;;;;19.00;83.97;99900.28;2708012;87;20123;-61
2021/07/29 03:59:01;;;;;;;8.70;5.12;;;;;;;19.04;83.62;99899.72;2708019;88;21023;-61
2021/07/29 04:03:08;;;;;;;17.40;6.20;;;;;;;19.09;83.63;99900.50;2708449;88;21000;-62
2021/07/29 04:07:11;;;;;;;6.65;4.75;;;;;;;19.15;83.37;99907.81;2708099;88;21070;-62
2021/07/29 04:11:14;;;;;;;5.12;4.15;;;;;;;19.25;83.65;99911.55;2708176;88;21043;-63
2021/07/29 04:15:16;;;;;;;54.35;11.30;;;;;;;19.39;83.70;99915.20;2707912;88;21087;-61
2021/07/29 04:19:18;;;;;;;7.85;4.40;;;;;;;19.78;84.17;99911.70;2708712;88;21083;-62
2021/07/29 04:23:24;;;;;;;8.68;5.67;;;;;;;20.40;84.35;99905.98;2709769;88;21039;-63
2021/07/29 04:27:30;;;;;;;4.25;3.85;;;;;;;21.18;83.46;99902.64;2709910;88;21035;-62
2021/07/29 04:31:34;;;;;;;6.10;4.78;;;;;;;22.21;83.57;99901.11;2709586;87;21058;-64
2021/07/29 04:35:41;;;;;;;7.00;4.45;;;;;;;23.20;79.67;99894.11;2727325;86;21044;-62
2021/07/29 04:39:45;;;;;;;;;;;;;;;24.05;75.63;99893.86;2747257;86;21035;-62
2021/07/29 04:43:50;;;;;;;11.28;5.20;;;;;;;24.81;72.54;99889.56;2744732;86;20403;-62
2021/07/29 04:47:58;;;;;;;5.77;5.23;;;;;;;25.48;70.27;99883.14;2744214;86;21059;-63
2021/07/29 04:52:07;;;;;;;13.08;5.62;;;;;;;26.20;70.20;99889.98;2745055;86;21009;-62
2021/07/29 04:56:11;;;;;;;17.73;5.83;;;;;;;26.97;67.73;99890.70;2745228;86;21031;-63
2021/07/29 05:00:14;;;;;;;5.62;3.60;;;;;;;26.87;63.49;99895.44;2744968;86;21035;-62
2021/07/29 05:04:18;;;;;;;6.00;3.75;;;;;;;26.77;64.69;99893.86;2745222;86;21008;-63
2021/07/29 05:08:41;;;;;;;5.22;4.05;;;;;;;27.27;64.09;99891.50;2745037;86;21095;-63
2021/07/29 05:12:47;;;;;;;5.65;4.25;;;;;;;27.74;63.34;99889.84;2745904;86;21008;-62
2021/07/29 05:17:04;;;;;;;9.90;5.08;;;;;;;28.20;61.34;99895.17;2747827;86;21083;-62
2021/07/29 05:21:09;;;;;;;4.80;4.30;;;;;;;28.56;60.52;99901.63;2747905;86;21056;-62
2021/07/29 05:25:11;;;;;;;4.42;4.00;;;;;;;28.96;58.91;99890.03;2748212;85;21035;-62
2021/07/29 05:29:15;;;;;;;8.50;4.17;;;;;;;29.26;58.51;99890.58;2747974;86;21015;-62
2021/07/29 05:33:18;;;;;;;5.58;3.22;;;;;;;29.45;57.78;99891.06;2748170;86;21040;-62
2021/07/29 05:37:21;;;;;;;7.62;3.70;;;;;;;29.75;56.60;99893.20;2748243;86;21004;-62
2021/07/29 05:41:25;;;;;;;5.92;3.47;;;;;;;29.99;56.40;99890.61;2748314;86;21086;-62
2021/07/29 05:45:28;;;;;;;7.60;4.03;;;;;;;30.15;54.70;99888.80;2705976;86;21043;-62
2021/07/29 05:49:31;;;;;;;;;;;;;;;30.22;54.88;99886.63;2661474;89;21142;-62
2021/07/29 05:53:33;;;;;;;8.25;3.65;;;;;;;30.39;53.77;99884.23;2706584;87;20104;-63
2021/07/29 05:57:42;;;;;;;3.65;3.35;;;;;;;30.28;53.62;99885.58;2659429;89;21004;-62
2021/07/29 06:01:44;;;;;;;5.80;3.55;;;;;;;29.98;52.98;99885.66;2702483;88;20984;-62
2021/07/29 06:05:47;;;;;;;50.15;10.43;;;;;;;29.53;54.56;99887.02;2702238;88;21103;-62
2021/07/29 06:09:58;;;;;;;10.70;4.40;;;;;;;29.42;55.17;99883.38;2702159;88;21067;-62
2021/07/29 06:14:01;;;;;;;3.75;2.95;;;;;;;29.60;55.21;99880.76;2664054;89;21072;-62
2021/07/29 06:18:09;;;;;;;3.52;3.12;;;;;;;29.54;53.97;99871.67;2664313;89;20993;-62
2021/07/29 06:22:10;;;;;;;6.65;2.77;;;;;;;29.68;53.26;99876.17;2698986;88;23407;-62
2021/07/29 06:26:16;;;;;;;3.40;2.90;;;;;;;29.48;51.57;99874.94;2702327;88;20984;-62
2021/07/29 06:30:20;;;;;;;6.22;2.55;;;;;;;28.90;52.72;99854.97;2701320;88;21044;-62
2021/07/29 06:34:22;;;;;;;8.08;3.58;;;;;;;28.77;53.20;99881.34;2642329;88;21035;-62
2021/07/29 06:38:27;;;;;;;3.62;2.85;;;;;;;28.47;53.54;99880.73;2628566;89;21083;-62
2021/07/29 06:42:29;;;;;;;3.95;2.55;;;;;;;28.07;54.44;99863.52;2663123;89;21036;-62
2021/07/29 06:46:38;;;;;;;3.22;2.72;;;;;;;28.23;54.27;99886.98;2669505;89;21058;-62
2021/07/29 06:50:39;;;;;;;4.42;3.02;;;;;;;28.52;54.42;99875.88;2675812;89;21051;-61
2021/07/29 06:54:41;;;;;;;3.50;2.98;;;;;;;28.81;53.48;99883.87;2675654;89;21012;-62
2021/07/29 06:58:48;;;;;;;3.12;2.40;;;;;;;28.73;53.09;99880.20;2675556;89;21068;-62
2021/07/29 07:02:52;;;;;;;6.22;2.65;;;;;;;28.01;52.33;99887.77;2655597;87;21087;-62
2021/07/29 07:07:31;;;;;;;7.60;3.43;;;;;;;27.32;54.24;99882.05;2662881;89;21031;-62
2021/07/29 07:11:34;;;;;;;5.03;3.22;;;;;;;26.88;54.83;99880.72;2632986;90;21031;-62
2021/07/29 07:15:38;;;;;;;3.33;2.50;;;;;;;26.49;55.66;99884.57;2666877;89;21040;-62
2021/07/29 07:20:16;;;;;;;6.25;3.15;;;;;;;26.29;56.42;99880.35;2748165;86;21083;-62
2021/07/29 07:24:19;;;;;;;3.37;2.25;;;;;;;26.42;56.37;99884.70;2748579;86;21489;-62
2021/07/29 07:28:57;;;;;;;4.65;2.65;;;;;;;26.78;56.21;99879.15;2748134;85;21063;-62
2021/07/29 07:33:01;;;;;;;4.08;2.70;;;;;;;26.76;54.70;99867.66;2748165;86;21075;-62
2021/07/29 07:37:39;;;;;;;11.75;4.12;;;;;;;26.52;55.75;99871.81;2748475;86;21023;-62
2021/07/29 07:41:40;;;;;;;31.00;8.03;;;;;;;26.88;56.03;99862.17;2748561;86;21016;-62
2021/07/29 07:45:43;;;;;;;7.58;3.40;;;;;;;27.25;54.65;99859.52;2748213;86;21274;-61
2021/07/29 07:54:25;;;;;;;5.22;3.37;;;;;;;27.60;54.43;99854.38;2748440;86;21035;-62
2021/07/29 07:59:03;;;;;;;2.95;2.72;;;;;;;27.98;53.57;99851.38;2728389;85;21040;-62
2021/07/29 08:03:05;;;;;;;7.50;2.83;;;;;;;28.09;53.06;99843.58;2704293;85;21491;-62
2021/07/29 08:07:08;;;;;;;2.42;1.77;;;;;;;28.34;52.87;99839.56;2712662;85;21056;-62
2021/07/29 08:11:14;;;;;;;2.98;2.60;;;;;;;28.56;51.83;99835.98;2717753;86;21022;-62
2021/07/29 08:15:17;;;;;;;4.35;3.22;;;;;;;28.90;51.69;99834.44;2742224;86;21052;-62
2021/07/29 08:19:30;;;;;;;6.17;2.60;;;;;;;28.87;51.22;99826.72;2741207;86;21045;-62
2021/07/29 08:23:31;;;;;;;4.95;2.52;;;;;;;28.39;51.36;99836.04;2687831;88;21062;-62
2021/07/29 08:27:38;;;;;;;2.72;2.52;;;;;;;27.93;51.60;99837.09;2687931;88;21051;-62
2021/07/29 08:31:39;;;;;;;3.25;2.65;;;;;;;27.97;52.36;99827.02;2701572;85;21034;-62
2021/07/29 08:35:41;;;;;;;6.22;2.65;;;;;;;27.97;52.38;99829.75;2711444;86;21034;-61
2021/07/29 08:39:54;;;;;;;5.62;3.10;;;;;;;27.90;51.94;99824.47;2703939;88;21043;-62
2021/07/29 08:43:56;;;;;;;3.12;2.83;;;;;;;27.96;51.92;99830.83;2720280;85;21075;-62
2021/07/29 08:48:03;;;;;;;6.80;2.90;;;;;;;27.72;52.51;99835.16;2683031;86;21042;-62
2021/07/29 08:52:08;;;;;;;4.15;2.50;;;;;;;27.60;52.45;99832.53;2750190;85;21081;-62
2021/07/29 08:56:14;;;;;;;8.88;3.42;;;;;;;27.22;53.14;99837.66;2742087;86;21031;-61
2021/07/29 09:00:16;;;;;;;5.65;3.37;;;;;;;26.76;54.12;99840.37;2742094;85;21011;-62
2021/07/29 09:04:18;;;;;;;5.95;3.52;;;;;;;26.42;54.98;99858.80;2728680;86;20988;-62
2021/07/29 09:08:25;;;;;;;7.97;2.85;;;;;;;26.21;55.90;99850.20;2716765;86;21077;-62
2021/07/29 09:12:32;;;;;;;66.90;12.50;;;;;;;26.05;54.54;99857.75;2730579;85;21061;-62
2021/07/29 09:16:37;;;;;;;3.52;2.70;;;;;;;25.92;53.84;99862.38;2711853;86;21065;-62
2021/07/29 09:20:39;;;;;;;;;;;;;;;25.98;53.74;99860.60;2724036;85;21081;-62
2021/07/29 09:25:05;;;;;;;8.45;3.00;;;;;;;26.19;54.53;99853.70;2743273;86;20110;-63
2021/07/29 09:29:21;;;;;;;7.03;2.77;;;;;;;26.46;53.68;99851.81;2707938;86;21041;-62
2021/07/29 09:33:22;;;;;;;3.33;2.62;;;;;;;26.60;53.23;99838.72;2737225;85;21094;-62
2021/07/29 09:37:25;;;;;;;3.50;2.65;;;;;;;26.85;53.18;99849.84;2709598;86;21058;-62
2021/07/29 09:41:27;;;;;;;13.65;4.25;;;;;;;27.09;53.38;99849.18;2747498;85;21035;-62
2021/07/29 09:45:34;;;;;;;3.02;2.58;;;;;;;27.27;50.73;99843.20;2719541;86;21029;-62
2021/07/29 09:49:36;;;;;;;4.87;3.45;;;;;;;27.29;48.56;99834.22;2706073;87;21064;-63
2021/07/29 09:53:38;;;;;;;4.37;3.22;;;;;;;27.51;48.41;99841.16;2687694;87;21039;-62
2021/07/29 09:57:41;;;;;;;4.65;3.67;;;;;;;27.71;47.60;99840.33;2676790;87;21079;-61
2021/07/29 10:01:43;;;;;;;5.08;2.83;;;;;;;27.60;46.79;99846.19;2635423;88;21075;-62
2021/07/29 10:05:57;;;;;;;5.70;2.67;;;;;;;27.72;46.73;99833.79;2655219;89;21080;-62
2021/07/29 10:10:25;;;;;;;3.02;2.72;;;;;;;27.62;47.07;99844.03;2658941;89;21091;-62
2021/07/29 10:14:54;;;;;;;3.42;3.12;;;;;;;27.83;48.61;99837.49;2645212;87;21045;-62
2021/07/29 10:19:04;;;;;;;4.55;2.98;;;;;;;28.16;47.00;99831.68;2667089;88;21028;-62
2021/07/29 10:23:31;;;;;;;4.85;3.30;;;;;;;28.12;44.98;99820.94;2641945;87;21072;-62
2021/07/29 10:27:40;;;;;;;3.33;2.58;;;;;;;27.77;45.96;99834.70;2636765;89;21098;-62
2021/07/29 10:31:54;;;;;;;4.65;3.35;;;;;;;27.60;45.18;99817.51;2652433;88;21046;-62
2021/07/29 10:35:58;;;;;;;3.15;2.27;;;;;;;27.49;44.95;99829.59;2665865;89;21012;-62
2021/07/29 10:40:01;;;;;;;6.28;3.70;;;;;;;27.25;45.37;99828.13;2630459;90;21015;-62
2021/07/29 10:44:05;;;;;;;5.70;3.30;;;;;;;27.37;46.16;99835.71;2655983;88;21075;-62
2021/07/29 10:48:16;;;;;;;6.10;3.77;;;;;;;27.36;46.06;99827.23;2645607;89;21078;-62
2021/07/29 10:52:17;;;;;;;15.65;3.45;;;;;;;27.49;47.16;99828.23;2712428;85;20984;-62
2021/07/29 10:56:28;;;;;;;6.12;3.83;;;;;;;27.80;44.71;99828.72;2714664;86;21046;-62
2021/07/29 11:00:30;;;;;;;5.33;3.72;;;;;;;28.01;44.59;99826.82;2704668;85;21326;-62
2021/07/29 11:04:55;;;;;;;6.10;2.77;;;;;;;28.16;44.38;99836.59;2726487;85;21023;-62
2021/07/29 11:09:14;;;;;;;;;;;;;;;28.06;44.08;99835.08;2736020;86;21075;-62
2021/07/29 11:13:16;;;;;;;6.62;3.37;;;;;;;27.72;45.19;99844.20;2736085;85;20157;-62
2021/07/29 11:17:22;;;;;;;2.90;2.60;;;;;;;27.70;45.28;99832.66;2736282;85;20998;-62
2021/07/29 11:21:23;;;;;;;3.85;3.47;;;;;;;28.08;45.58;99830.99;2757567;85;21050;-62
2021/07/29 11:25:26;;;;;;;3.90;2.70;;;;;;;28.12;43.37;99824.48;2773206;85;21065;-62
2021/07/29 11:29:30;;;;;;;3.20;2.67;;;;;;;28.32;45.02;99833.52;2771693;85;21060;-62
2021/07/29 11:33:39;;;;;;;3.90;2.55;;;;;;;28.57;46.03;99828.58;2755537;85;21051;-62
2021/07/29 11:37:48;;;;;;;4.17;2.80;;;;;;;28.86;43.50;99819.59;2724003;86;21035;-62
2021/07/29 11:41:59;;;;;;;3.87;2.95;;;;;;;28.93;42.42;99802.97;2734898;86;21035;-61
2021/07/29 11:46:11;;;;;;;5.55;2.55;;;;;;;28.93;42.42;99802.97;2771486;85;21007;-62
2021/07/29 11:50:13;;;;;;;5.12;2.27;;;;;;;28.83;42.74;99819.31;2746753;85;21104;-62
2021/07/29 11:54:24;;;;;;;2.70;2.27;;;;;;;28.58;43.27;99820.13;2735303;85;21008;-62
2021/07/29 11:58:30;;;;;;;3.92;3.00;;;;;;;28.47;43.50;99816.98;2733303;85;21003;-62
2021/07/29 12:02:32;;;;;;;5.05;2.98;;;;;;;28.34;44.35;99808.11;2750666;85;20994;-62
2021/07/29 12:06:36;;;;;;;3.77;2.98;;;;;;;28.31;44.89;99822.30;2762494;84;21035;-62
2021/07/29 12:10:38;;;;;;;6.42;2.87;;;;;;;28.24;44.96;99821.66;2732369;86;21051;-62
2021/07/29 12:14:45;;;;;;;5.28;3.90;;;;;;;28.36;45.93;99822.88;2748327;86;21030;-62
2021/07/29 12:19:04;;;;;;;3.92;2.90;;;;;;;28.16;45.58;99819.38;2704890;85;21113;-62
2021/07/29 12:23:10;;;;;;;10.10;3.47;;;;;;;27.77;46.64;99816.94;2657773;89;21054;-62
2021/07/29 12:27:19;;;;;;;5.25;2.95;;;;;;;28.05;46.51;99808.83;2671708;86;21052;-62
2021/07/29 12:31:26;;;;;;;3.60;2.90;;;;;;;28.34;45.29;99801.80;2665142;89;21074;-62
2021/07/29 12:35:29;;;;;;;2.95;2.65;;;;;;;28.16;45.04;99801.05;2649316;87;21067;-63
2021/07/29 12:39:34;;;;;;;4.12;3.33;;;;;;;28.17;46.01;99798.60;2697782;86;21051;-62
2021/07/29 12:43:36;;;;;;;;;;;;;;;28.50;45.50;99801.45;2702414;88;21028;-62
2021/07/29 12:47:38;;;;;;;4.17;3.30;;;;;;;28.34;45.25;99793.08;2702840;85;20179;-62
2021/07/29 12:51:45;;;;;;;6.60;3.60;;;;;;;28.32;45.10;99788.93;2692236;86;21019;-62
2021/07/29 12:55:50;;;;;;;9.98;3.87;;;;;;;28.41;45.30;99779.20;2698832;87;20956;-62
2021/07/29 13:00:09;;;;;;;5.40;2.70;;;;;;;28.68;45.08;99782.47;2715427;86;21544;-62
2021/07/29 13:04:10;;;;;;;3.80;2.70;;;;;;;28.98;44.22;99783.03;2681385;86;21081;-62
2021/07/29 13:08:49;;;;;;;3.27;2.22;;;;;;;29.12;43.56;99773.83;2707539;86;20972;-63
2021/07/29 13:12:53;;;;;;;3.45;2.90;;;;;;;29.18;42.80;99767.30;2722474;87;21013;-61
2021/07/29 13:17:28;;;;;;;5.37;3.00;;;;;;;28.99;43.02;99762.78;2724168;86;21032;-63
2021/07/29 13:21:30;;;;;;;12.28;3.40;;;;;;;28.77;43.27;99767.77;2721846;87;21037;-63
2021/07/29 13:25:32;;;;;;;4.67;2.25;;;;;;;28.59;44.55;99764.86;2723966;86;21009;-64
2021/07/29 13:30:11;;;;;;;3.22;2.47;;;;;;;28.72;45.05;99764.44;2724139;87;20973;-63
2021/07/29 13:34:13;;;;;;;2.65;2.42;;;;;;;28.81;45.62;99759.35;2724216;87;21093;-65
2021/07/29 13:38:52;;;;;;;8.70;3.08;;;;;;;28.92;42.69;99718.67;2722518;86;21146;-63
2021/07/29 13:42:54;;;;;;;6.20;3.20;;;;;;;28.89;43.52;99726.05;2694099;87;21060;-62
2021/07/29 13:47:33;;;;;;;9.00;2.90;;;;;;;29.01;44.19;99736.81;2683630;86;21298;-62
2021/07/29 13:51:36;;;;;;;3.12;2.67;;;;;;;29.01;44.19;99736.81;2688973;88;21058;-62
2021/07/29 13:55:39;;;;;;;6.92;2.40;;;;;;;29.20;44.16;99733.66;2687958;88;21030;-62
2021/07/29 14:00:18;;;;;;;3.08;2.33;;;;;;;29.34;44.82;99731.27;2688714;88;21070;-62
2021/07/29 14:04:20;;;;;;;7.40;1.90;;;;;;;29.28;44.30;99729.57;2688665;88;21147;-62
2021/07/29 14:08:40;;;;;;;3.87;1.98;;;;;;;29.20;45.24;99722.70;2688135;87;21137;-62
2021/07/29 14:12:42;;;;;;;11.08;3.55;;;;;;;29.20;45.24;99722.70;2688116;88;21066;-62
2021/07/29 14:16:46;;;;;;;2.70;2.33;;;;;;;29.45;43.66;99702.86;2687879;88;21443;-62
2021/07/29 14:20:59;;;;;;;3.90;2.63;;;;;;;29.45;43.66;99702.86;2688370;88;21034;-62
2021/07/29 14:24:51;;;;;;;2.85;1.77;;;;;;;29.60;42.44;99700.77;2686770;88;21071;-62
2021/07/29 14:28:53;;;;;;;3.87;2.08;;;;;;;29.50;41.40;99697.95;2687919;88;20955;-62
2021/07/29 14:32:55;;;;;;;4.97;2.58;;;;;;;29.26;42.52;99707.94;2687874;88;21270;-62
2021/07/29 14:37:11;;;;;;;2.60;2.40;;;;;;;29.39;43.02;99694.31;2688294;88;21069;-63
2021/07/29 14:41:13;;;;;;;6.22;2.47;;;;;;;29.39;43.02;99694.31;2688232;88;21075;-62
2021/07/29 14:49:21;;;;;;;53.10;13.08;;;;;;;29.80;41.75;99695.08;2652568;88;21078;-62
2021/07/29 14:53:23;;;;;;;6.30;1.65;;;;;;;29.89;41.94;99690.71;2687928;88;21068;-62
2021/07/29 15:20:24;;;;;;;6.10;2.58;;;;;;;29.82;42.19;99666.02;2688558;88;21074;-63
2021/07/29 16:07:32;;;;;;;3.10;2.60;;;;;;;29.64;44.59;99644.86;2717526;86;21125;-63
2021/07/29 16:11:31;;;;;;;6.30;3.55;;;;;;;29.83;42.43;99649.84;2716569;87;21027;-62
2021/07/29 16:15:35;;;;;;;5.28;2.65;;;;;;;29.86;41.68;99639.70;2724141;86;21027;-62
2021/07/29 16:19:41;;;;;;;7.53;2.30;;;;;;;29.75;41.76;99642.97;2725516;87;21043;-62
2021/07/29 16:23:40;;;;;;;8.83;3.33;;;;;;;29.71;42.44;99642.70;2724097;87;21072;-62
2021/07/29 16:27:46;;;;;;;3.83;2.30;;;;;;;29.52;42.25;99645.66;2719371;86;21008;-62
2021/07/29 16:31:48;;;;;;;37.28;10.05;;;;;;;29.11;42.59;99648.98;2711328;86;21047;-61
2021/07/29 16:35:50;;;;;;;126.05;21.05;;;;;;;28.89;42.82;99661.73;2694720;86;20968;-61
2021/07/29 16:40:03;;;;;;;4.60;2.20;;;;;;;28.76;43.43;99655.30;2716616;86;21576;-61
2021/07/29 16:44:06;;;;;;;92.88;16.60;;;;;;;28.66;43.54;99651.95;2707178;86;20990;-62
2021/07/29 16:48:12;;;;;;;12.15;3.55;;;;;;;28.54;44.42;99648.03;2723980;87;21032;-61
2021/07/29 16:52:13;;;;;;;26.70;6.90;;;;;;;28.54;44.42;99648.03;2705474;86;21099;-61
2021/07/29 16:56:16;;;;;;;14.13;5.17;;;;;;;28.22;44.95;99640.11;2706327;88;21035;-61
2021/07/29 17:00:19;;;;;;;12.35;2.83;;;;;;;28.02;45.33;99646.16;2704833;87;21028;-61
2021/07/29 17:04:21;;;;;;;5.45;3.30;;;;;;;28.02;45.33;99646.16;2670743;87;21106;-62
2021/07/29 17:08:24;;;;;;;122.72;22.32;;;;;;;27.97;45.70;99645.27;2661200;87;21075;-62
2021/07/29 17:12:26;;;;;;;7.25;2.98;;;;;;;27.79;45.75;99648.64;2656699;87;21091;-62
2021/07/29 17:16:30;;;;;;;16.55;3.25;;;;;;;27.61;46.00;99653.38;2672644;89;21024;-61
2021/07/29 17:20:32;;;;;;;4.57;2.43;;;;;;;27.49;46.41;99652.08;2658828;87;21055;-61
2021/07/29 17:24:36;;;;;;;11.15;4.83;;;;;;;27.40;46.89;99652.26;2668797;87;21063;-61
2021/07/29 17:28:43;;;;;;;7.15;2.55;;;;;;;27.33;47.40;99655.72;2662875;87;21024;-61
2021/07/29 17:32:45;;;;;;;39.40;9.68;;;;;;;27.27;47.62;99663.54;2654813;87;21016;-61
2021/07/29 17:36:52;;;;;;;11.50;3.55;;;;;;;27.18;47.98;99669.45;2657463;87;21091;-61
2021/07/29 17:40:55;;;;;;;318.75;77.92;;;;;;;27.11;48.48;99674.23;2697510;88;20988;-61
2021/07/29 17:44:57;;;;;;;101.35;22.10;;;;;;;27.03;48.94;99678.25;2650308;88;21067;-61
2021/07/29 17:48:59;;;;;;;23.80;8.78;;;;;;;26.89;49.37;99671.47;2683103;85;21044;-61
2021/07/29 17:53:03;;;;;;;80.25;13.48;;;;;;;26.75;49.96;99670.96;2734636;85;21061;-61
2021/07/29 17:57:24;;;;;;;20.20;4.65;;;;;;;26.58;50.43;99670.42;2731525;86;21007;-61
2021/07/29 18:01:26;;;;;;;9.00;2.92;;;;;;;26.44;50.90;99669.92;2723720;85;21042;-61
2021/07/29 18:05:29;;;;;;;9.03;3.37;;;;;;;26.34;51.56;99670.57;2730723;85;21003;-61
2021/07/29 18:09:33;;;;;;;5.08;2.67;;;;;;;26.28;51.86;99671.53;2709997;85;21014;-61
2021/07/29 18:13:35;;;;;;;9.75;3.37;;;;;;;26.21;51.83;99669.50;2725832;85;21089;-62
2021/07/29 18:17:42;;;;;;;9.55;3.50;;;;;;;25.90;51.67;99671.61;2723317;85;21036;-62
2021/07/29 18:21:45;;;;;;;6.28;2.50;;;;;;;25.44;51.92;99672.30;2743710;85;21024;-61
2021/07/29 18:25:47;;;;;;;12.05;4.60;;;;;;;25.12;52.27;99672.69;2746971;86;21041;-61
2021/07/29 18:30:09;;;;;;;11.15;3.60;;;;;;;24.94;52.80;99673.65;2747420;85;21065;-61
2021/07/29 18:34:11;;;;;;;38.55;9.45;;;;;;;24.82;53.07;99681.80;2737563;85;21074;-61
2021/07/29 18:38:13;;;;;;;40.83;10.65;;;;;;;24.58;53.87;99686.34;2738482;85;21035;-61
2021/07/29 18:42:14;;;;;;;23.47;6.75;;;;;;;24.42;54.29;99689.21;2723463;85;21023;-61
2021/07/29 18:46:21;;;;;;;17.75;5.87;;;;;;;24.34;54.52;99687.10;2718563;85;21082;-61
2021/07/29 18:50:27;;;;;;;22.55;4.70;;;;;;;24.25;54.75;99689.86;2742570;85;21058;-61
2021/07/29 18:54:31;;;;;;;13.65;5.53;;;;;;;24.20;54.77;99690.55;2753034;86;21032;-62
2021/07/29 18:58:51;;;;;;;18.95;5.95;;;;;;;24.16;55.18;99699.38;2753679;86;21073;-60
2021/07/29 19:02:53;;;;;;;24.18;5.00;;;;;;;24.07;55.37;99706.51;2751691;85;20992;-61
2021/07/29 19:06:57;;;;;;;16.42;4.33;;;;;;;23.94;55.87;99714.78;2740371;85;21039;-61
2021/07/29 19:11:02;;;;;;;15.70;4.13;;;;;;;23.77;56.21;99715.41;2701100;86;21054;-61
2021/07/29 19:15:09;;;;;;;38.33;7.25;;;;;;;23.59;56.69;99719.51;2669182;89;21051;-61
2021/07/29 19:19:12;;;;;;;40.15;7.33;;;;;;;23.41;57.14;99721.16;2691732;87;21001;-61
2021/07/29 19:23:16;;;;;;;19.20;5.75;;;;;;;23.30;57.61;99725.95;2720225;87;21059;-61
2021/07/29 19:27:25;;;;;;;12.57;4.27;;;;;;;23.18;58.50;99729.35;2718927;87;21023;-60
2021/07/29 19:31:28;;;;;;;15.10;4.87;;;;;;;23.07;58.66;99730.09;2718618;87;21082;-61
2021/07/29 19:35:30;;;;;;;13.65;5.00;;;;;;;22.90;59.01;99733.36;2718601;87;21053;-61
2021/07/29 19:39:44;;;;;;;19.62;5.25;;;;;;;22.78;59.51;99731.05;2720020;87;21015;-61
2021/07/29 19:43:47;;;;;;;10.13;5.50;;;;;;;22.70;59.87;99742.17;2706579;86;21075;-61
2021/07/29 19:47:50;;;;;;;14.47;4.12;;;;;;;22.58;60.14;99741.50;2685988;87;21099;-61
2021/07/29 19:51:52;;;;;;;12.82;4.90;;;;;;;22.42;60.50;99743.38;2701057;87;20992;-61
2021/07/29 19:55:54;;;;;;;9.88;3.67;;;;;;;22.34;60.91;99752.05;2673661;87;21064;-61
2021/07/29 19:59:58;;;;;;;15.05;4.20;;;;;;;22.27;61.18;99748.55;2692582;88;21032;-61
2021/07/29 20:04:00;;;;;;;11.35;4.62;;;;;;;22.21;61.25;99748.06;2692918;88;21044;-61
2021/07/29 20:08:03;;;;;;;12.55;4.72;;;;;;;22.11;61.53;99745.28;2692683;87;21076;-61
2021/07/29 20:12:06;;;;;;;26.90;5.70;;;;;;;22.02;61.91;99746.59;2656919;87;20990;-61
2021/07/29 20:16:08;;;;;;;8.85;4.58;;;;;;;21.92;62.40;99747.55;2639384;87;21062;-62
2021/07/29 20:20:10;;;;;;;7.15;4.62;;;;;;;21.83;62.76;99753.22;2648626;88;21023;-61
2021/07/29 20:24:12;;;;;;;6.80;4.83;;;;;;;21.71;63.03;99757.61;2670704;87;21047;-62
2021/07/29 20:28:18;;;;;;;10.25;4.75;;;;;;;21.54;63.91;99758.03;2699604;86;21008;-62
2021/07/29 20:32:22;;;;;;;10.25;5.12;;;;;;;21.38;64.07;99756.61;2677788;88;21016;-62
2021/07/29 20:36:24;;;;;;;13.93;5.10;;;;;;;21.29;65.04;99754.33;2683919;88;21070;-62